sensor_id;sensor_type;location;lat;lon;timestamp;temperature;humidity
47384;DHT22;33129;52.232;5.192;2022-08-04T00:01:39;26.20;99.90
47384;DHT22;33129;52.232;5.192;2022-08-04T00:04:13;26.40;99.90
47384;DHT22;33129;52.232;5.192;2022-08-04T00:09:56;26.10;99.90
47384;DHT22;33129;52.232;5.192;2022-08-04T00:12:28;26.00;99.90
47384;DHT22;33129;52.232;5.192;2022-08-04T00:14:59;26.00;99.90
47384;DHT22;33129;52.232;5.192;2022-08-04T00:17:30;26.10;99.90
47384;DHT22;33129;52.232;5.192;2022-08-04T00:20:02;26.00;99.90
47384;DHT22;33129;52.232;5.192;2022-08-04T00:22:30;26.10;99.90
47384;DHT22;33129;52.232;5.192;2022-08-04T00:24:57;26.00;99.90
47384;DHT22;33129;52.232;5.192;2022-08-04T00:27:24;26.10;99.90
47384;DHT22;33129;52.232;5.192;2022-08-04T00:29:53;26.10;99.90
47384;DHT22;33129;52.232;5.192;2022-08-04T00:32:21;26.10;99.90
47384;DHT22;33129;52.232;5.192;2022-08-04T00:34:47;26.10;99.90
47384;DHT22;33129;52.232;5.192;2022-08-04T00:37:14;26.20;99.90
47384;DHT22;33129;52.232;5.192;2022-08-04T00:39:41;26.20;99.90
47384;DHT22;33129;52.232;5.192;2022-08-04T00:48:10;26.10;99.90
47384;DHT22;33129;52.232;5.192;2022-08-04T00:54:09;26.10;99.90
47384;DHT22;33129;52.232;5.192;2022-08-04T00:56:56;26.10;99.90
47384;DHT22;33129;52.232;5.192;2022-08-04T01:02:44;26.00;99.90
47384;DHT22;33129;52.232;5.192;2022-08-04T01:08:54;25.80;99.90
47384;DHT22;33129;52.232;5.192;2022-08-04T01:15:02;25.80;99.90
47384;DHT22;33129;52.232;5.192;2022-08-04T01:17:36;25.90;99.90
47384;DHT22;33129;52.232;5.192;2022-08-04T01:20:10;25.70;99.90
47384;DHT22;33129;52.232;5.192;2022-08-04T01:22:48;25.80;99.90
47384;DHT22;33129;52.232;5.192;2022-08-04T01:28:27;25.70;99.90
47384;DHT22;33129;52.232;5.192;2022-08-04T01:31:25;25.80;99.90
47384;DHT22;33129;52.232;5.192;2022-08-04T01:34:12;25.90;99.90
47384;DHT22;33129;52.232;5.192;2022-08-04T01:36:45;25.80;99.90
47384;DHT22;33129;52.232;5.192;2022-08-04T01:39:13;25.80;99.90
47384;DHT22;33129;52.232;5.192;2022-08-04T01:41:59;25.80;99.90
47384;DHT22;33129;52.232;5.192;2022-08-04T01:44:27;25.70;99.90
47384;DHT22;33129;52.232;5.192;2022-08-04T01:46:54;25.60;99.90
47384;DHT22;33129;52.232;5.192;2022-08-04T01:49:20;25.60;99.90
47384;DHT22;33129;52.232;5.192;2022-08-04T01:51:49;25.60;99.90
47384;DHT22;33129;52.232;5.192;2022-08-04T01:54:18;25.70;99.90
47384;DHT22;33129;52.232;5.192;2022-08-04T01:56:46;25.60;99.90
47384;DHT22;33129;52.232;5.192;2022-08-04T01:59:17;25.60;99.90
47384;DHT22;33129;52.232;5.192;2022-08-04T02:01:44;25.70;99.90
47384;DHT22;33129;52.232;5.192;2022-08-04T02:04:18;25.60;99.90
47384;DHT22;33129;52.232;5.192;2022-08-04T02:10:06;25.50;99.90
47384;DHT22;33129;52.232;5.192;2022-08-04T02:18:06;25.20;99.90
47384;DHT22;33129;52.232;5.192;2022-08-04T02:20:45;25.20;99.90
47384;DHT22;33129;52.232;5.192;2022-08-04T02:23:27;25.20;99.90
47384;DHT22;33129;52.232;5.192;2022-08-04T02:26:26;25.20;99.90
47384;DHT22;33129;52.232;5.192;2022-08-04T02:31:46;25.00;99.90
47384;DHT22;33129;52.232;5.192;2022-08-04T02:34:44;25.10;99.90
47384;DHT22;33129;52.232;5.192;2022-08-04T02:37:16;25.00;99.90
47384;DHT22;33129;52.232;5.192;2022-08-04T02:39:43;24.90;99.90
47384;DHT22;33129;52.232;5.192;2022-08-04T02:42:12;25.10;99.90
47384;DHT22;33129;52.232;5.192;2022-08-04T02:44:39;25.00;99.90
47384;DHT22;33129;52.232;5.192;2022-08-04T02:47:07;24.90;99.90
47384;DHT22;33129;52.232;5.192;2022-08-04T02:49:37;24.90;99.90
47384;DHT22;33129;52.232;5.192;2022-08-04T02:52:06;24.90;99.90
47384;DHT22;33129;52.232;5.192;2022-08-04T02:54:39;24.80;99.90
47384;DHT22;33129;52.232;5.192;2022-08-04T02:57:10;24.90;99.90
47384;DHT22;33129;52.232;5.192;2022-08-04T03:05:22;24.70;99.90
47384;DHT22;33129;52.232;5.192;2022-08-04T03:16:28;24.70;99.90
47384;DHT22;33129;52.232;5.192;2022-08-04T03:31:03;24.70;99.90
47384;DHT22;33129;52.232;5.192;2022-08-04T03:34:02;24.60;99.90
47384;DHT22;33129;52.232;5.192;2022-08-04T03:43:15;24.30;99.90
47384;DHT22;33129;52.232;5.192;2022-08-04T03:52:02;24.20;99.90
47384;DHT22;33129;52.232;5.192;2022-08-04T03:57:46;24.10;99.90
47384;DHT22;33129;52.232;5.192;2022-08-04T04:00:29;24.10;99.90
47384;DHT22;33129;52.232;5.192;2022-08-04T04:06:48;24.50;99.90
47384;DHT22;33129;52.232;5.192;2022-08-04T04:09:54;24.50;99.90
47384;DHT22;33129;52.232;5.192;2022-08-04T04:15:51;24.70;99.90
47384;DHT22;33129;52.232;5.192;2022-08-04T04:36:02;24.70;99.90
47384;DHT22;33129;52.232;5.192;2022-08-04T04:39:00;24.60;99.90
47384;DHT22;33129;52.232;5.192;2022-08-04T04:44:59;24.80;99.90
47384;DHT22;33129;52.232;5.192;2022-08-04T04:48:32;24.90;99.90
47384;DHT22;33129;52.232;5.192;2022-08-04T04:56:51;25.00;99.90
47384;DHT22;33129;52.232;5.192;2022-08-04T04:59:21;25.00;99.90
47384;DHT22;33129;52.232;5.192;2022-08-04T05:02:06;24.90;99.90
47384;DHT22;33129;52.232;5.192;2022-08-04T05:07:56;24.80;99.90
47384;DHT22;33129;52.232;5.192;2022-08-04T05:16:32;24.90;99.90
47384;DHT22;33129;52.232;5.192;2022-08-04T05:24:33;24.90;99.90
47384;DHT22;33129;52.232;5.192;2022-08-04T05:29:53;25.00;99.90
47384;DHT22;33129;52.232;5.192;2022-08-04T05:32:47;25.20;99.90
47384;DHT22;33129;52.232;5.192;2022-08-04T05:35:21;25.40;99.90
47384;DHT22;33129;52.232;5.192;2022-08-04T05:37:56;25.40;99.90
47384;DHT22;33129;52.232;5.192;2022-08-04T05:40:24;25.50;99.90
47384;DHT22;33129;52.232;5.192;2022-08-04T05:42:53;25.50;99.90
47384;DHT22;33129;52.232;5.192;2022-08-04T05:45:20;25.60;99.90
47384;DHT22;33129;52.232;5.192;2022-08-04T05:47:48;25.50;99.90
47384;DHT22;33129;52.232;5.192;2022-08-04T05:50:16;25.50;99.90
47384;DHT22;33129;52.232;5.192;2022-08-04T05:52:43;25.50;99.90
47384;DHT22;33129;52.232;5.192;2022-08-04T05:55:09;25.60;99.90
47384;DHT22;33129;52.232;5.192;2022-08-04T05:57:39;25.50;99.90
47384;DHT22;33129;52.232;5.192;2022-08-04T06:00:06;25.40;99.90
47384;DHT22;33129;52.232;5.192;2022-08-04T06:02:34;25.40;99.90
47384;DHT22;33129;52.232;5.192;2022-08-04T06:05:00;25.60;99.90
47384;DHT22;33129;52.232;5.192;2022-08-04T06:07:27;25.40;99.90
47384;DHT22;33129;52.232;5.192;2022-08-04T06:09:54;25.50;99.90
47384;DHT22;33129;52.232;5.192;2022-08-04T06:12:25;25.70;99.90
47384;DHT22;33129;52.232;5.192;2022-08-04T06:14:57;25.80;99.90
47384;DHT22;33129;52.232;5.192;2022-08-04T06:17:31;25.80;99.90
47384;DHT22;33129;52.232;5.192;2022-08-04T06:20:00;25.60;99.90
47384;DHT22;33129;52.232;5.192;2022-08-04T06:22:28;25.60;99.90
47384;DHT22;33129;52.232;5.192;2022-08-04T06:24:56;25.50;99.90
47384;DHT22;33129;52.232;5.192;2022-08-04T06:27:23;25.60;99.90
47384;DHT22;33129;52.232;5.192;2022-08-04T06:29:49;25.60;99.90
47384;DHT22;33129;52.232;5.192;2022-08-04T06:32:17;25.60;99.90
47384;DHT22;33129;52.232;5.192;2022-08-04T06:34:59;25.60;99.90
47384;DHT22;33129;52.232;5.192;2022-08-04T06:37:26;25.70;99.90
47384;DHT22;33129;52.232;5.192;2022-08-04T06:39:53;25.70;99.90
47384;DHT22;33129;52.232;5.192;2022-08-04T06:42:22;25.80;99.90
47384;DHT22;33129;52.232;5.192;2022-08-04T06:44:53;25.90;99.90
47384;DHT22;33129;52.232;5.192;2022-08-04T06:47:21;26.00;99.90
47384;DHT22;33129;52.232;5.192;2022-08-04T06:49:50;26.10;99.90
47384;DHT22;33129;52.232;5.192;2022-08-04T06:52:19;26.20;99.90
47384;DHT22;33129;52.232;5.192;2022-08-04T06:54:46;25.90;99.90
47384;DHT22;33129;52.232;5.192;2022-08-04T06:57:14;25.80;99.90
47384;DHT22;33129;52.232;5.192;2022-08-04T07:00:05;25.90;99.90
47384;DHT22;33129;52.232;5.192;2022-08-04T07:02:45;25.90;99.90
47384;DHT22;33129;52.232;5.192;2022-08-04T07:05:13;25.90;99.90
47384;DHT22;33129;52.232;5.192;2022-08-04T07:07:40;25.90;99.90
47384;DHT22;33129;52.232;5.192;2022-08-04T07:10:07;26.00;99.90
47384;DHT22;33129;52.232;5.192;2022-08-04T07:12:34;26.00;99.90
47384;DHT22;33129;52.232;5.192;2022-08-04T07:15:02;26.10;99.90
47384;DHT22;33129;52.232;5.192;2022-08-04T07:17:29;26.10;99.90
47384;DHT22;33129;52.232;5.192;2022-08-04T07:19:56;26.00;99.90
47384;DHT22;33129;52.232;5.192;2022-08-04T07:22:24;26.00;99.90
47384;DHT22;33129;52.232;5.192;2022-08-04T07:24:54;26.00;99.90
47384;DHT22;33129;52.232;5.192;2022-08-04T07:27:21;25.90;99.90
47384;DHT22;33129;52.232;5.192;2022-08-04T07:29:48;25.80;99.90
47384;DHT22;33129;52.232;5.192;2022-08-04T07:32:16;25.90;99.90
47384;DHT22;33129;52.232;5.192;2022-08-04T07:34:43;26.20;99.90
47384;DHT22;33129;52.232;5.192;2022-08-04T07:37:11;26.30;99.90
47384;DHT22;33129;52.232;5.192;2022-08-04T07:39:37;26.40;99.90
47384;DHT22;33129;52.232;5.192;2022-08-04T07:42:03;26.40;99.90
47384;DHT22;33129;52.232;5.192;2022-08-04T07:44:34;26.50;99.90
47384;DHT22;33129;52.232;5.192;2022-08-04T07:47:02;26.60;99.90
47384;DHT22;33129;52.232;5.192;2022-08-04T07:49:30;26.80;99.90
47384;DHT22;33129;52.232;5.192;2022-08-04T07:51:56;27.10;99.90
47384;DHT22;33129;52.232;5.192;2022-08-04T07:54:22;27.20;99.90
47384;DHT22;33129;52.232;5.192;2022-08-04T07:56:49;27.40;99.90
47384;DHT22;33129;52.232;5.192;2022-08-04T07:59:18;27.60;99.90
47384;DHT22;33129;52.232;5.192;2022-08-04T08:01:45;27.80;99.90
47384;DHT22;33129;52.232;5.192;2022-08-04T08:04:13;28.20;99.90
47384;DHT22;33129;52.232;5.192;2022-08-04T08:06:40;28.40;99.90
47384;DHT22;33129;52.232;5.192;2022-08-04T08:09:14;28.40;99.90
47384;DHT22;33129;52.232;5.192;2022-08-04T08:11:45;28.60;99.90
47384;DHT22;33129;52.232;5.192;2022-08-04T08:14:12;28.80;99.90
47384;DHT22;33129;52.232;5.192;2022-08-04T08:16:38;29.00;99.90
47384;DHT22;33129;52.232;5.192;2022-08-04T08:19:05;29.20;99.90
47384;DHT22;33129;52.232;5.192;2022-08-04T08:21:33;29.30;99.90
47384;DHT22;33129;52.232;5.192;2022-08-04T08:24:00;29.40;99.90
47384;DHT22;33129;52.232;5.192;2022-08-04T08:26:26;29.30;99.90
47384;DHT22;33129;52.232;5.192;2022-08-04T08:28:52;29.70;99.90
47384;DHT22;33129;52.232;5.192;2022-08-04T08:31:19;29.70;99.90
47384;DHT22;33129;52.232;5.192;2022-08-04T08:33:45;29.90;99.90
47384;DHT22;33129;52.232;5.192;2022-08-04T08:36:18;30.30;99.90
47384;DHT22;33129;52.232;5.192;2022-08-04T08:39:02;30.10;99.90
47384;DHT22;33129;52.232;5.192;2022-08-04T08:48:20;30.40;99.90
47384;DHT22;33129;52.232;5.192;2022-08-04T09:11:09;31.00;99.90
47384;DHT22;33129;52.232;5.192;2022-08-04T09:13:44;30.60;99.90
47384;DHT22;33129;52.232;5.192;2022-08-04T09:16:39;30.40;99.90
47384;DHT22;33129;52.232;5.192;2022-08-04T09:19:16;30.60;99.90
47384;DHT22;33129;52.232;5.192;2022-08-04T09:25:02;29.90;99.90
47384;DHT22;33129;52.232;5.192;2022-08-04T09:27:43;29.90;99.90
47384;DHT22;33129;52.232;5.192;2022-08-04T09:30:18;30.00;99.90
47384;DHT22;33129;52.232;5.192;2022-08-04T09:36:02;30.60;99.90
47384;DHT22;33129;52.232;5.192;2022-08-04T09:41:23;30.80;99.90
47384;DHT22;33129;52.232;5.192;2022-08-04T09:46:42;30.80;99.90
47384;DHT22;33129;52.232;5.192;2022-08-04T09:49:15;30.50;99.90
47384;DHT22;33129;52.232;5.192;2022-08-04T09:51:57;30.30;99.90
47384;DHT22;33129;52.232;5.192;2022-08-04T10:00:09;30.30;99.90
47384;DHT22;33129;52.232;5.192;2022-08-04T10:02:39;30.30;99.90
47384;DHT22;33129;52.232;5.192;2022-08-04T10:05:18;30.30;99.90
47384;DHT22;33129;52.232;5.192;2022-08-04T10:14:09;29.80;99.90
47384;DHT22;33129;52.232;5.192;2022-08-04T10:16:52;29.70;99.90
47384;DHT22;33129;52.232;5.192;2022-08-04T10:19:37;29.70;99.90
47384;DHT22;33129;52.232;5.192;2022-08-04T10:27:47;29.50;99.90
47384;DHT22;33129;52.232;5.192;2022-08-04T10:30:18;29.50;99.90
47384;DHT22;33129;52.232;5.192;2022-08-04T10:35:46;29.40;99.90
47384;DHT22;33129;52.232;5.192;2022-08-04T10:38:21;29.50;99.90
47384;DHT22;33129;52.232;5.192;2022-08-04T10:44:36;29.30;99.90
47384;DHT22;33129;52.232;5.192;2022-08-04T10:47:25;29.30;99.90
47384;DHT22;33129;52.232;5.192;2022-08-04T10:50:01;29.20;99.90
47384;DHT22;33129;52.232;5.192;2022-08-04T10:52:43;29.20;99.90
47384;DHT22;33129;52.232;5.192;2022-08-04T10:55:18;29.20;99.90
47384;DHT22;33129;52.232;5.192;2022-08-04T10:58:00;29.20;99.90
47384;DHT22;33129;52.232;5.192;2022-08-04T11:00:31;29.20;99.90
47384;DHT22;33129;52.232;5.192;2022-08-04T11:03:16;29.20;99.90
47384;DHT22;33129;52.232;5.192;2022-08-04T11:05:56;29.20;99.90
47384;DHT22;33129;52.232;5.192;2022-08-04T11:08:35;29.20;99.90
47384;DHT22;33129;52.232;5.192;2022-08-04T11:11:16;29.20;99.90
47384;DHT22;33129;52.232;5.192;2022-08-04T11:16:45;29.40;99.90
47384;DHT22;33129;52.232;5.192;2022-08-04T11:22:23;29.70;99.90
47384;DHT22;33129;52.232;5.192;2022-08-04T11:25:13;29.70;99.90
47384;DHT22;33129;52.232;5.192;2022-08-04T11:28:08;29.80;99.90
47384;DHT22;33129;52.232;5.192;2022-08-04T11:30:58;30.10;99.90
47384;DHT22;33129;52.232;5.192;2022-08-04T11:33:55;30.30;99.90
47384;DHT22;33129;52.232;5.192;2022-08-04T11:36:50;30.80;99.90
47384;DHT22;33129;52.232;5.192;2022-08-04T11:39:42;30.90;99.90
47384;DHT22;33129;52.232;5.192;2022-08-04T11:42:35;30.80;99.90
47384;DHT22;33129;52.232;5.192;2022-08-04T11:45:15;30.90;99.90
47384;DHT22;33129;52.232;5.192;2022-08-04T11:48:04;30.90;99.90
47384;DHT22;33129;52.232;5.192;2022-08-04T11:50:53;31.00;99.90
47384;DHT22;33129;52.232;5.192;2022-08-04T11:53:25;31.00;99.90
47384;DHT22;33129;52.232;5.192;2022-08-04T11:55:53;31.00;99.90
47384;DHT22;33129;52.232;5.192;2022-08-04T11:58:23;31.10;99.90
47384;DHT22;33129;52.232;5.192;2022-08-04T12:01:16;31.30;99.90
47384;DHT22;33129;52.232;5.192;2022-08-04T12:03:59;31.20;99.90
47384;DHT22;33129;52.232;5.192;2022-08-04T12:06:35;31.40;99.90
47384;DHT22;33129;52.232;5.192;2022-08-04T12:12:37;31.40;99.90
47384;DHT22;33129;52.232;5.192;2022-08-04T12:15:22;31.60;99.90
47384;DHT22;33129;52.232;5.192;2022-08-04T12:20:48;31.60;99.90
47384;DHT22;33129;52.232;5.192;2022-08-04T12:23:38;31.70;99.90
47384;DHT22;33129;52.232;5.192;2022-08-04T12:26:08;31.70;99.90
47384;DHT22;33129;52.232;5.192;2022-08-04T12:28:40;31.80;99.90
47384;DHT22;33129;52.232;5.192;2022-08-04T12:31:27;31.70;99.90
47384;DHT22;33129;52.232;5.192;2022-08-04T12:34:16;31.50;99.90
47384;DHT22;33129;52.232;5.192;2022-08-04T12:37:09;31.30;99.90
47384;DHT22;33129;52.232;5.192;2022-08-04T12:39:43;31.10;99.90
47384;DHT22;33129;52.232;5.192;2022-08-04T12:42:12;31.10;99.90
47384;DHT22;33129;52.232;5.192;2022-08-04T12:44:47;31.00;99.90
47384;DHT22;33129;52.232;5.192;2022-08-04T12:47:22;31.10;99.90
47384;DHT22;33129;52.232;5.192;2022-08-04T12:49:51;31.30;99.90
47384;DHT22;33129;52.232;5.192;2022-08-04T12:52:19;31.30;99.90
47384;DHT22;33129;52.232;5.192;2022-08-04T12:54:50;31.50;99.90
47384;DHT22;33129;52.232;5.192;2022-08-04T12:57:17;31.10;99.90
47384;DHT22;33129;52.232;5.192;2022-08-04T12:59:44;31.30;99.90
47384;DHT22;33129;52.232;5.192;2022-08-04T13:02:17;31.70;99.90
47384;DHT22;33129;52.232;5.192;2022-08-04T13:04:49;31.80;99.90
47384;DHT22;33129;52.232;5.192;2022-08-04T13:07:18;31.90;99.90
47384;DHT22;33129;52.232;5.192;2022-08-04T13:09:46;31.70;99.90
47384;DHT22;33129;52.232;5.192;2022-08-04T13:12:14;31.80;99.90
47384;DHT22;33129;52.232;5.192;2022-08-04T13:14:43;31.80;99.90
47384;DHT22;33129;52.232;5.192;2022-08-04T13:17:13;31.80;99.90
47384;DHT22;33129;52.232;5.192;2022-08-04T13:19:46;31.80;99.90
47384;DHT22;33129;52.232;5.192;2022-08-04T13:22:12;32.00;99.90
47384;DHT22;33129;52.232;5.192;2022-08-04T13:24:41;31.80;99.90
47384;DHT22;33129;52.232;5.192;2022-08-04T13:27:09;31.80;99.90
47384;DHT22;33129;52.232;5.192;2022-08-04T13:29:43;31.60;99.90
47384;DHT22;33129;52.232;5.192;2022-08-04T13:32:15;31.70;99.90
47384;DHT22;33129;52.232;5.192;2022-08-04T13:34:42;31.70;99.90
47384;DHT22;33129;52.232;5.192;2022-08-04T13:37:09;31.80;99.90
47384;DHT22;33129;52.232;5.192;2022-08-04T13:39:36;31.50;99.90
47384;DHT22;33129;52.232;5.192;2022-08-04T13:42:08;31.30;99.90
47384;DHT22;33129;52.232;5.192;2022-08-04T13:44:36;31.40;99.90
47384;DHT22;33129;52.232;5.192;2022-08-04T13:47:06;31.60;99.90
47384;DHT22;33129;52.232;5.192;2022-08-04T13:49:34;31.70;99.90
47384;DHT22;33129;52.232;5.192;2022-08-04T13:52:02;31.70;99.90
47384;DHT22;33129;52.232;5.192;2022-08-04T13:54:36;31.80;99.90
47384;DHT22;33129;52.232;5.192;2022-08-04T13:57:10;31.70;99.90
47384;DHT22;33129;52.232;5.192;2022-08-04T13:59:37;31.70;99.90
47384;DHT22;33129;52.232;5.192;2022-08-04T14:02:14;31.30;99.90
47384;DHT22;33129;52.232;5.192;2022-08-04T14:04:54;31.10;99.90
47384;DHT22;33129;52.232;5.192;2022-08-04T14:07:24;31.50;99.90
47384;DHT22;33129;52.232;5.192;2022-08-04T14:09:50;31.60;99.90
47384;DHT22;33129;52.232;5.192;2022-08-04T14:12:17;31.70;99.90
47384;DHT22;33129;52.232;5.192;2022-08-04T14:14:47;31.20;99.90
47384;DHT22;33129;52.232;5.192;2022-08-04T14:17:17;31.20;99.90
47384;DHT22;33129;52.232;5.192;2022-08-04T14:20:01;31.20;99.90
47384;DHT22;33129;52.232;5.192;2022-08-04T14:25:08;31.40;99.90
47384;DHT22;33129;52.232;5.192;2022-08-04T14:27:50;31.20;99.90
47384;DHT22;33129;52.232;5.192;2022-08-04T14:30:28;30.90;99.90
47384;DHT22;33129;52.232;5.192;2022-08-04T14:35:26;30.50;99.90
47384;DHT22;33129;52.232;5.192;2022-08-04T14:37:57;30.40;99.90
47384;DHT22;33129;52.232;5.192;2022-08-04T14:40:29;30.20;99.90
47384;DHT22;33129;52.232;5.192;2022-08-04T14:42:57;30.00;99.90
47384;DHT22;33129;52.232;5.192;2022-08-04T14:45:34;29.90;99.90
47384;DHT22;33129;52.232;5.192;2022-08-04T14:48:07;29.80;99.90
47384;DHT22;33129;52.232;5.192;2022-08-04T14:50:39;29.70;99.90
47384;DHT22;33129;52.232;5.192;2022-08-04T14:53:19;29.90;99.90
47384;DHT22;33129;52.232;5.192;2022-08-04T14:55:48;29.90;99.90
47384;DHT22;33129;52.232;5.192;2022-08-04T14:58:31;29.80;99.90
47384;DHT22;33129;52.232;5.192;2022-08-04T15:01:00;29.90;99.90
47384;DHT22;33129;52.232;5.192;2022-08-04T15:03:28;29.80;99.90
47384;DHT22;33129;52.232;5.192;2022-08-04T15:05:56;29.90;99.90
47384;DHT22;33129;52.232;5.192;2022-08-04T15:08:23;30.20;99.90
47384;DHT22;33129;52.232;5.192;2022-08-04T15:10:49;30.10;99.90
47384;DHT22;33129;52.232;5.192;2022-08-04T15:13:17;30.20;99.90
47384;DHT22;33129;52.232;5.192;2022-08-04T15:15:43;30.10;99.90
47384;DHT22;33129;52.232;5.192;2022-08-04T15:18:11;29.90;99.90
47384;DHT22;33129;52.232;5.192;2022-08-04T15:20:38;30.10;99.90
47384;DHT22;33129;52.232;5.192;2022-08-04T15:23:07;30.00;99.90
47384;DHT22;33129;52.232;5.192;2022-08-04T15:25:48;29.80;99.90
47384;DHT22;33129;52.232;5.192;2022-08-04T15:28:18;29.70;99.90
47384;DHT22;33129;52.232;5.192;2022-08-04T15:30:50;29.50;99.90
47384;DHT22;33129;52.232;5.192;2022-08-04T15:33:17;29.70;99.90
47384;DHT22;33129;52.232;5.192;2022-08-04T15:35:49;29.50;99.90
47384;DHT22;33129;52.232;5.192;2022-08-04T15:38:28;29.50;99.90
47384;DHT22;33129;52.232;5.192;2022-08-04T15:41:08;29.10;99.90
47384;DHT22;33129;52.232;5.192;2022-08-04T15:44:04;29.10;99.90
47384;DHT22;33129;52.232;5.192;2022-08-04T15:49:19;28.80;99.90
47384;DHT22;33129;52.232;5.192;2022-08-04T15:52:02;28.90;99.90
47384;DHT22;33129;52.232;5.192;2022-08-04T15:54:30;28.70;99.90
47384;DHT22;33129;52.232;5.192;2022-08-04T15:56:56;28.70;99.90
47384;DHT22;33129;52.232;5.192;2022-08-04T15:59:55;28.70;99.90
47384;DHT22;33129;52.232;5.192;2022-08-04T16:12:58;28.90;99.90
47384;DHT22;33129;52.232;5.192;2022-08-04T16:18:19;28.50;99.90
47384;DHT22;33129;52.232;5.192;2022-08-04T16:20:58;28.50;99.90
47384;DHT22;33129;52.232;5.192;2022-08-04T16:27:20;28.60;99.90
47384;DHT22;33129;52.232;5.192;2022-08-04T16:34:34;28.40;99.90
47384;DHT22;33129;52.232;5.192;2022-08-04T16:37:02;28.40;99.90
47384;DHT22;33129;52.232;5.192;2022-08-04T16:39:29;28.10;99.90
47384;DHT22;33129;52.232;5.192;2022-08-04T16:41:56;28.10;99.90
47384;DHT22;33129;52.232;5.192;2022-08-04T16:47:01;28.20;99.90
47384;DHT22;33129;52.232;5.192;2022-08-04T16:49:29;27.90;99.90
47384;DHT22;33129;52.232;5.192;2022-08-04T16:52:06;27.80;99.90
47384;DHT22;33129;52.232;5.192;2022-08-04T16:54:34;28.10;99.90
47384;DHT22;33129;52.232;5.192;2022-08-04T16:57:07;28.10;99.90
47384;DHT22;33129;52.232;5.192;2022-08-04T16:59:34;28.10;99.90
47384;DHT22;33129;52.232;5.192;2022-08-04T17:02:00;28.30;99.90
47384;DHT22;33129;52.232;5.192;2022-08-04T17:04:30;28.30;99.90
47384;DHT22;33129;52.232;5.192;2022-08-04T17:07:02;28.20;99.90
47384;DHT22;33129;52.232;5.192;2022-08-04T17:09:30;28.20;99.90
47384;DHT22;33129;52.232;5.192;2022-08-04T17:12:00;27.90;99.90
47384;DHT22;33129;52.232;5.192;2022-08-04T17:14:29;27.80;99.90
47384;DHT22;33129;52.232;5.192;2022-08-04T17:16:57;28.00;99.90
47384;DHT22;33129;52.232;5.192;2022-08-04T17:19:24;27.90;99.90
47384;DHT22;33129;52.232;5.192;2022-08-04T17:21:50;27.80;99.90
47384;DHT22;33129;52.232;5.192;2022-08-04T17:24:18;27.80;99.90
47384;DHT22;33129;52.232;5.192;2022-08-04T17:26:47;27.60;99.90
47384;DHT22;33129;52.232;5.192;2022-08-04T17:29:13;27.50;99.90
47384;DHT22;33129;52.232;5.192;2022-08-04T17:31:41;27.40;99.90
47384;DHT22;33129;52.232;5.192;2022-08-04T17:34:13;27.50;99.90
47384;DHT22;33129;52.232;5.192;2022-08-04T17:36:40;27.50;99.90
47384;DHT22;33129;52.232;5.192;2022-08-04T17:41:48;27.40;99.90
47384;DHT22;33129;52.232;5.192;2022-08-04T17:44:19;27.40;99.90
47384;DHT22;33129;52.232;5.192;2022-08-04T17:46:45;27.20;99.90
47384;DHT22;33129;52.232;5.192;2022-08-04T17:51:46;27.10;99.90
47384;DHT22;33129;52.232;5.192;2022-08-04T17:54:19;27.00;99.90
47384;DHT22;33129;52.232;5.192;2022-08-04T17:56:50;27.00;99.90
47384;DHT22;33129;52.232;5.192;2022-08-04T17:59:21;26.90;99.90
47384;DHT22;33129;52.232;5.192;2022-08-04T18:01:54;26.70;99.90
47384;DHT22;33129;52.232;5.192;2022-08-04T18:04:24;26.90;99.90
47384;DHT22;33129;52.232;5.192;2022-08-04T18:07:05;26.90;99.90
47384;DHT22;33129;52.232;5.192;2022-08-04T18:09:56;26.80;99.90
47384;DHT22;33129;52.232;5.192;2022-08-04T18:12:31;26.70;99.90
47384;DHT22;33129;52.232;5.192;2022-08-04T18:15:03;26.80;99.90
47384;DHT22;33129;52.232;5.192;2022-08-04T18:17:34;26.80;99.90
47384;DHT22;33129;52.232;5.192;2022-08-04T18:20:07;26.80;99.90
47384;DHT22;33129;52.232;5.192;2022-08-04T18:22:43;26.80;99.90
47384;DHT22;33129;52.232;5.192;2022-08-04T18:25:12;26.70;99.90
47384;DHT22;33129;52.232;5.192;2022-08-04T18:30:13;26.40;99.90
47384;DHT22;33129;52.232;5.192;2022-08-04T18:32:39;26.60;99.90
47384;DHT22;33129;52.232;5.192;2022-08-04T18:35:05;26.60;99.90
47384;DHT22;33129;52.232;5.192;2022-08-04T18:37:32;26.50;99.90
47384;DHT22;33129;52.232;5.192;2022-08-04T18:39:58;26.50;99.90
47384;DHT22;33129;52.232;5.192;2022-08-04T18:42:24;26.40;99.90
47384;DHT22;33129;52.232;5.192;2022-08-04T18:44:51;26.40;99.90
47384;DHT22;33129;52.232;5.192;2022-08-04T18:47:20;26.30;99.90
47384;DHT22;33129;52.232;5.192;2022-08-04T18:49:53;26.40;99.90
47384;DHT22;33129;52.232;5.192;2022-08-04T18:52:22;26.50;99.90
47384;DHT22;33129;52.232;5.192;2022-08-04T18:54:48;26.50;99.90
47384;DHT22;33129;52.232;5.192;2022-08-04T18:57:21;26.60;99.90
47384;DHT22;33129;52.232;5.192;2022-08-04T18:59:49;26.60;99.90
47384;DHT22;33129;52.232;5.192;2022-08-04T19:02:15;26.40;99.90
47384;DHT22;33129;52.232;5.192;2022-08-04T19:04:44;26.30;99.90
47384;DHT22;33129;52.232;5.192;2022-08-04T19:07:10;26.40;99.90
47384;DHT22;33129;52.232;5.192;2022-08-04T19:09:39;26.20;99.90
47384;DHT22;33129;52.232;5.192;2022-08-04T19:12:05;26.20;99.90
47384;DHT22;33129;52.232;5.192;2022-08-04T19:14:36;26.30;99.90
47384;DHT22;33129;52.232;5.192;2022-08-04T19:17:03;26.20;99.90
47384;DHT22;33129;52.232;5.192;2022-08-04T19:19:28;26.30;99.90
47384;DHT22;33129;52.232;5.192;2022-08-04T19:21:54;26.50;99.90
47384;DHT22;33129;52.232;5.192;2022-08-04T19:24:21;26.50;99.90
47384;DHT22;33129;52.232;5.192;2022-08-04T19:26:49;26.50;99.90
47384;DHT22;33129;52.232;5.192;2022-08-04T19:29:15;26.40;99.90
47384;DHT22;33129;52.232;5.192;2022-08-04T19:31:42;26.30;99.90
47384;DHT22;33129;52.232;5.192;2022-08-04T19:34:08;26.10;99.90
47384;DHT22;33129;52.232;5.192;2022-08-04T19:36:34;25.90;99.90
47384;DHT22;33129;52.232;5.192;2022-08-04T19:39:06;25.80;99.90
47384;DHT22;33129;52.232;5.192;2022-08-04T19:41:33;25.90;99.90
47384;DHT22;33129;52.232;5.192;2022-08-04T19:44:02;25.90;99.90
47384;DHT22;33129;52.232;5.192;2022-08-04T19:46:32;25.80;99.90
47384;DHT22;33129;52.232;5.192;2022-08-04T19:48:58;25.70;99.90
47384;DHT22;33129;52.232;5.192;2022-08-04T19:51:24;25.80;99.90
47384;DHT22;33129;52.232;5.192;2022-08-04T19:53:50;25.80;99.90
47384;DHT22;33129;52.232;5.192;2022-08-04T19:56:17;25.90;99.90
47384;DHT22;33129;52.232;5.192;2022-08-04T19:58:43;25.90;99.90
47384;DHT22;33129;52.232;5.192;2022-08-04T20:01:11;25.80;99.90
47384;DHT22;33129;52.232;5.192;2022-08-04T20:03:37;25.70;99.90
47384;DHT22;33129;52.232;5.192;2022-08-04T20:06:08;25.70;99.90
47384;DHT22;33129;52.232;5.192;2022-08-04T20:08:34;25.70;99.90
47384;DHT22;33129;52.232;5.192;2022-08-04T20:11:07;25.70;99.90